sensor_id;sensor_type;location;lat;lon;timestamp;P1;durP1;ratioP1;P2;durP2;ratioP2
10653;SDS011;5375;51.250;6.776;2022-12-04T00:02:15;10.67;;;6.70;;
10653;SDS011;5375;51.250;6.776;2022-12-04T00:04:41;8.40;;;6.53;;
10653;SDS011;5375;51.250;6.776;2022-12-04T00:07:06;8.50;;;6.57;;
10653;SDS011;5375;51.250;6.776;2022-12-04T00:09:32;9.27;;;6.83;;
10653;SDS011;5375;51.250;6.776;2022-12-04T00:11:58;7.07;;;6.37;;
10653;SDS011;5375;51.250;6.776;2022-12-04T00:14:23;8.37;;;6.33;;
10653;SDS011;5375;51.250;6.776;2022-12-04T00:16:49;9.57;;;6.30;;
10653;SDS011;5375;51.250;6.776;2022-12-04T00:19:15;9.67;;;7.27;;
10653;SDS011;5375;51.250;6.776;2022-12-04T00:21:40;8.63;;;6.63;;
10653;SDS011;5375;51.250;6.776;2022-12-04T00:24:06;9.60;;;6.97;;
10653;SDS011;5375;51.250;6.776;2022-12-04T00:26:32;8.40;;;6.70;;
10653;SDS011;5375;51.250;6.776;2022-12-04T00:28:58;8.53;;;6.70;;
10653;SDS011;5375;51.250;6.776;2022-12-04T00:31:25;10.17;;;6.90;;
10653;SDS011;5375;51.250;6.776;2022-12-04T00:33:52;8.37;;;6.30;;
10653;SDS011;5375;51.250;6.776;2022-12-04T00:36:19;8.53;;;7.17;;
10653;SDS011;5375;51.250;6.776;2022-12-04T00:38:47;8.50;;;7.00;;
10653;SDS011;5375;51.250;6.776;2022-12-04T00:41:17;8.07;;;6.40;;
10653;SDS011;5375;51.250;6.776;2022-12-04T00:43:44;8.57;;;6.87;;
10653;SDS011;5375;51.250;6.776;2022-12-04T00:46:10;9.37;;;6.97;;
10653;SDS011;5375;51.250;6.776;2022-12-04T00:48:36;10.27;;;7.43;;
10653;SDS011;5375;51.250;6.776;2022-12-04T00:51:03;8.37;;;6.60;;
10653;SDS011;5375;51.250;6.776;2022-12-04T00:53:29;9.43;;;7.20;;
10653;SDS011;5375;51.250;6.776;2022-12-04T00:55:55;9.10;;;6.97;;
10653;SDS011;5375;51.250;6.776;2022-12-04T00:58:21;9.43;;;7.40;;
10653;SDS011;5375;51.250;6.776;2022-12-04T01:00:47;9.20;;;7.13;;
10653;SDS011;5375;51.250;6.776;2022-12-04T01:03:12;9.07;;;6.80;;
10653;SDS011;5375;51.250;6.776;2022-12-04T01:05:42;9.67;;;7.70;;
10653;SDS011;5375;51.250;6.776;2022-12-04T01:08:10;10.30;;;7.50;;
10653;SDS011;5375;51.250;6.776;2022-12-04T01:10:40;8.77;;;7.10;;
10653;SDS011;5375;51.250;6.776;2022-12-04T01:13:06;9.00;;;7.30;;
10653;SDS011;5375;51.250;6.776;2022-12-04T01:15:32;8.70;;;7.13;;
10653;SDS011;5375;51.250;6.776;2022-12-04T01:17:58;11.30;;;8.13;;
10653;SDS011;5375;51.250;6.776;2022-12-04T01:20:23;9.73;;;7.43;;
10653;SDS011;5375;51.250;6.776;2022-12-04T01:22:49;9.77;;;7.47;;
10653;SDS011;5375;51.250;6.776;2022-12-04T01:25:15;9.30;;;7.80;;
10653;SDS011;5375;51.250;6.776;2022-12-04T01:27:41;9.50;;;7.70;;
10653;SDS011;5375;51.250;6.776;2022-12-04T01:30:06;9.37;;;7.63;;
10653;SDS011;5375;51.250;6.776;2022-12-04T01:32:32;9.63;;;7.37;;
10653;SDS011;5375;51.250;6.776;2022-12-04T01:34:58;8.47;;;7.27;;
10653;SDS011;5375;51.250;6.776;2022-12-04T01:37:23;9.33;;;7.27;;
10653;SDS011;5375;51.250;6.776;2022-12-04T01:39:49;9.57;;;7.47;;
10653;SDS011;5375;51.250;6.776;2022-12-04T01:42:15;11.27;;;7.67;;
10653;SDS011;5375;51.250;6.776;2022-12-04T01:44:41;13.37;;;7.70;;
10653;SDS011;5375;51.250;6.776;2022-12-04T01:47:27;11.97;;;7.17;;
10653;SDS011;5375;51.250;6.776;2022-12-04T01:49:53;14.07;;;7.13;;
10653;SDS011;5375;51.250;6.776;2022-12-04T01:52:20;10.27;;;7.70;;
10653;SDS011;5375;51.250;6.776;2022-12-04T01:54:48;10.03;;;7.40;;
10653;SDS011;5375;51.250;6.776;2022-12-04T01:57:19;11.60;;;8.13;;
10653;SDS011;5375;51.250;6.776;2022-12-04T01:59:48;10.50;;;8.50;;
10653;SDS011;5375;51.250;6.776;2022-12-04T02:02:21;10.47;;;7.40;;
10653;SDS011;5375;51.250;6.776;2022-12-04T02:04:53;13.23;;;7.67;;
10653;SDS011;5375;51.250;6.776;2022-12-04T02:07:20;10.53;;;7.80;;
10653;SDS011;5375;51.250;6.776;2022-12-04T02:09:45;11.40;;;8.13;;
10653;SDS011;5375;51.250;6.776;2022-12-04T02:20:36;9.83;;;7.70;;
10653;SDS011;5375;51.250;6.776;2022-12-04T02:37:46;12.83;;;8.30;;
10653;SDS011;5375;51.250;6.776;2022-12-04T02:40:22;10.37;;;7.87;;
10653;SDS011;5375;51.250;6.776;2022-12-04T02:45:28;11.20;;;8.27;;
10653;SDS011;5375;51.250;6.776;2022-12-04T02:47:58;9.83;;;7.70;;
10653;SDS011;5375;51.250;6.776;2022-12-04T02:50:27;10.63;;;8.23;;
10653;SDS011;5375;51.250;6.776;2022-12-04T02:53:00;10.13;;;7.73;;
10653;SDS011;5375;51.250;6.776;2022-12-04T03:01:32;10.10;;;8.40;;
10653;SDS011;5375;51.250;6.776;2022-12-04T03:04:04;11.03;;;8.17;;
10653;SDS011;5375;51.250;6.776;2022-12-04T03:06:59;10.60;;;8.17;;
10653;SDS011;5375;51.250;6.776;2022-12-04T03:09:31;18.43;;;8.87;;
10653;SDS011;5375;51.250;6.776;2022-12-04T03:12:11;14.17;;;8.30;;
10653;SDS011;5375;51.250;6.776;2022-12-04T03:14:41;13.17;;;7.90;;
10653;SDS011;5375;51.250;6.776;2022-12-04T03:17:21;15.97;;;8.30;;
10653;SDS011;5375;51.250;6.776;2022-12-04T03:19:54;11.53;;;7.67;;
10653;SDS011;5375;51.250;6.776;2022-12-04T03:22:25;13.37;;;8.37;;
10653;SDS011;5375;51.250;6.776;2022-12-04T03:24:53;10.20;;;8.50;;
10653;SDS011;5375;51.250;6.776;2022-12-04T03:30:19;10.50;;;7.20;;
10653;SDS011;5375;51.250;6.776;2022-12-04T03:32:51;10.20;;;7.67;;
10653;SDS011;5375;51.250;6.776;2022-12-04T03:35:39;9.97;;;7.37;;
10653;SDS011;5375;51.250;6.776;2022-12-04T03:38:09;10.57;;;7.80;;
10653;SDS011;5375;51.250;6.776;2022-12-04T03:43:36;11.90;;;7.73;;
10653;SDS011;5375;51.250;6.776;2022-12-04T03:46:23;11.77;;;8.13;;
10653;SDS011;5375;51.250;6.776;2022-12-04T03:49:24;9.90;;;7.70;;
10653;SDS011;5375;51.250;6.776;2022-12-04T03:51:54;9.97;;;7.73;;
10653;SDS011;5375;51.250;6.776;2022-12-04T03:54:31;10.37;;;7.90;;
10653;SDS011;5375;51.250;6.776;2022-12-04T03:57:02;12.13;;;7.57;;
10653;SDS011;5375;51.250;6.776;2022-12-04T03:59:41;10.80;;;7.90;;
10653;SDS011;5375;51.250;6.776;2022-12-04T04:02:12;11.40;;;8.00;;
10653;SDS011;5375;51.250;6.776;2022-12-04T04:04:42;10.20;;;7.87;;
10653;SDS011;5375;51.250;6.776;2022-12-04T04:07:16;10.73;;;8.07;;
10653;SDS011;5375;51.250;6.776;2022-12-04T04:09:47;11.93;;;8.20;;
10653;SDS011;5375;51.250;6.776;2022-12-04T04:12:19;11.37;;;8.60;;
10653;SDS011;5375;51.250;6.776;2022-12-04T04:14:48;10.00;;;8.00;;
10653;SDS011;5375;51.250;6.776;2022-12-04T04:17:46;11.63;;;8.33;;
10653;SDS011;5375;51.250;6.776;2022-12-04T04:20:46;10.03;;;8.03;;
10653;SDS011;5375;51.250;6.776;2022-12-04T04:23:42;10.13;;;8.10;;
10653;SDS011;5375;51.250;6.776;2022-12-04T04:26:31;11.03;;;8.33;;
10653;SDS011;5375;51.250;6.776;2022-12-04T04:29:00;10.30;;;8.00;;
10653;SDS011;5375;51.250;6.776;2022-12-04T04:31:29;9.80;;;7.90;;
10653;SDS011;5375;51.250;6.776;2022-12-04T04:36:58;10.57;;;8.00;;
10653;SDS011;5375;51.250;6.776;2022-12-04T04:42:15;12.43;;;8.70;;
10653;SDS011;5375;51.250;6.776;2022-12-04T04:44:46;10.50;;;8.13;;
10653;SDS011;5375;51.250;6.776;2022-12-04T04:47:41;11.10;;;8.23;;
10653;SDS011;5375;51.250;6.776;2022-12-04T04:50:11;11.40;;;7.87;;
10653;SDS011;5375;51.250;6.776;2022-12-04T04:52:40;11.60;;;8.10;;
10653;SDS011;5375;51.250;6.776;2022-12-04T04:55:09;11.00;;;7.40;;
10653;SDS011;5375;51.250;6.776;2022-12-04T04:57:35;11.40;;;8.17;;
10653;SDS011;5375;51.250;6.776;2022-12-04T05:00:03;10.03;;;7.73;;
10653;SDS011;5375;51.250;6.776;2022-12-04T05:02:30;10.13;;;7.90;;
10653;SDS011;5375;51.250;6.776;2022-12-04T05:04:57;10.90;;;8.00;;
10653;SDS011;5375;51.250;6.776;2022-12-04T05:07:23;8.83;;;7.27;;
10653;SDS011;5375;51.250;6.776;2022-12-04T05:09:48;11.30;;;7.73;;
10653;SDS011;5375;51.250;6.776;2022-12-04T05:12:14;8.80;;;7.30;;
10653;SDS011;5375;51.250;6.776;2022-12-04T05:14:40;10.40;;;7.30;;
10653;SDS011;5375;51.250;6.776;2022-12-04T05:17:05;9.70;;;7.70;;
10653;SDS011;5375;51.250;6.776;2022-12-04T05:19:32;10.30;;;7.87;;
10653;SDS011;5375;51.250;6.776;2022-12-04T05:22:16;9.60;;;7.53;;
10653;SDS011;5375;51.250;6.776;2022-12-04T05:24:43;9.87;;;7.53;;
10653;SDS011;5375;51.250;6.776;2022-12-04T05:27:08;9.47;;;7.03;;
10653;SDS011;5375;51.250;6.776;2022-12-04T05:29:34;10.43;;;7.10;;
10653;SDS011;5375;51.250;6.776;2022-12-04T05:32:00;9.53;;;7.13;;
10653;SDS011;5375;51.250;6.776;2022-12-04T05:34:25;9.20;;;7.00;;
10653;SDS011;5375;51.250;6.776;2022-12-04T05:36:51;8.30;;;7.23;;
10653;SDS011;5375;51.250;6.776;2022-12-04T05:39:17;8.83;;;7.23;;
10653;SDS011;5375;51.250;6.776;2022-12-04T05:41:43;9.83;;;7.20;;
10653;SDS011;5375;51.250;6.776;2022-12-04T05:44:08;9.60;;;7.37;;
10653;SDS011;5375;51.250;6.776;2022-12-04T05:46:34;10.27;;;7.83;;
10653;SDS011;5375;51.250;6.776;2022-12-04T05:49:00;9.40;;;7.10;;
10653;SDS011;5375;51.250;6.776;2022-12-04T05:51:25;9.63;;;7.33;;
10653;SDS011;5375;51.250;6.776;2022-12-04T05:53:51;8.67;;;7.10;;
10653;SDS011;5375;51.250;6.776;2022-12-04T05:56:16;10.23;;;7.40;;
10653;SDS011;5375;51.250;6.776;2022-12-04T05:58:42;8.80;;;7.67;;
10653;SDS011;5375;51.250;6.776;2022-12-04T06:01:12;9.53;;;7.20;;
10653;SDS011;5375;51.250;6.776;2022-12-04T06:03:41;8.17;;;6.97;;
10653;SDS011;5375;51.250;6.776;2022-12-04T06:06:10;8.67;;;6.67;;
10653;SDS011;5375;51.250;6.776;2022-12-04T06:08:40;9.37;;;6.83;;
10653;SDS011;5375;51.250;6.776;2022-12-04T06:11:12;8.97;;;6.90;;
10653;SDS011;5375;51.250;6.776;2022-12-04T06:13:39;7.43;;;6.43;;
10653;SDS011;5375;51.250;6.776;2022-12-04T06:16:10;8.63;;;6.90;;
10653;SDS011;5375;51.250;6.776;2022-12-04T06:18:50;9.77;;;7.23;;
10653;SDS011;5375;51.250;6.776;2022-12-04T06:21:17;7.57;;;6.40;;
10653;SDS011;5375;51.250;6.776;2022-12-04T06:23:44;8.03;;;6.60;;
10653;SDS011;5375;51.250;6.776;2022-12-04T06:26:10;7.40;;;6.33;;
10653;SDS011;5375;51.250;6.776;2022-12-04T06:28:36;8.10;;;6.43;;
10653;SDS011;5375;51.250;6.776;2022-12-04T06:31:03;9.60;;;6.73;;
10653;SDS011;5375;51.250;6.776;2022-12-04T06:33:30;8.20;;;6.30;;
10653;SDS011;5375;51.250;6.776;2022-12-04T06:35:59;9.30;;;6.80;;
10653;SDS011;5375;51.250;6.776;2022-12-04T06:38:29;9.30;;;7.03;;
10653;SDS011;5375;51.250;6.776;2022-12-04T06:40:55;7.00;;;5.97;;
10653;SDS011;5375;51.250;6.776;2022-12-04T06:43:22;7.53;;;6.23;;
10653;SDS011;5375;51.250;6.776;2022-12-04T06:45:48;9.23;;;6.87;;
10653;SDS011;5375;51.250;6.776;2022-12-04T06:48:22;9.37;;;6.17;;
10653;SDS011;5375;51.250;6.776;2022-12-04T06:50:48;9.10;;;6.20;;
10653;SDS011;5375;51.250;6.776;2022-12-04T06:53:14;7.90;;;6.03;;
10653;SDS011;5375;51.250;6.776;2022-12-04T06:55:45;7.37;;;6.03;;
10653;SDS011;5375;51.250;6.776;2022-12-04T06:58:12;7.47;;;5.87;;
10653;SDS011;5375;51.250;6.776;2022-12-04T07:00:38;7.50;;;6.27;;
10653;SDS011;5375;51.250;6.776;2022-12-04T07:03:03;7.47;;;5.67;;
10653;SDS011;5375;51.250;6.776;2022-12-04T07:05:29;7.53;;;5.50;;
10653;SDS011;5375;51.250;6.776;2022-12-04T07:07:55;7.90;;;6.00;;
10653;SDS011;5375;51.250;6.776;2022-12-04T07:10:20;7.83;;;6.07;;
10653;SDS011;5375;51.250;6.776;2022-12-04T07:12:46;6.90;;;5.40;;
10653;SDS011;5375;51.250;6.776;2022-12-04T07:15:11;8.20;;;6.07;;
10653;SDS011;5375;51.250;6.776;2022-12-04T07:17:37;7.67;;;5.70;;
10653;SDS011;5375;51.250;6.776;2022-12-04T07:20:03;7.10;;;5.50;;
10653;SDS011;5375;51.250;6.776;2022-12-04T07:22:29;6.97;;;5.60;;
10653;SDS011;5375;51.250;6.776;2022-12-04T07:24:54;7.23;;;5.83;;
10653;SDS011;5375;51.250;6.776;2022-12-04T07:27:20;7.50;;;6.07;;
10653;SDS011;5375;51.250;6.776;2022-12-04T07:29:45;7.47;;;5.93;;
10653;SDS011;5375;51.250;6.776;2022-12-04T07:32:11;7.43;;;5.43;;
10653;SDS011;5375;51.250;6.776;2022-12-04T07:34:37;7.53;;;6.00;;
10653;SDS011;5375;51.250;6.776;2022-12-04T07:37:03;7.37;;;5.97;;
10653;SDS011;5375;51.250;6.776;2022-12-04T07:39:28;7.50;;;5.70;;
10653;SDS011;5375;51.250;6.776;2022-12-04T07:41:54;7.40;;;5.53;;
10653;SDS011;5375;51.250;6.776;2022-12-04T07:44:20;7.53;;;5.53;;
10653;SDS011;5375;51.250;6.776;2022-12-04T07:46:45;6.93;;;5.50;;
10653;SDS011;5375;51.250;6.776;2022-12-04T07:49:11;7.23;;;5.73;;
10653;SDS011;5375;51.250;6.776;2022-12-04T07:51:37;7.00;;;6.03;;
10653;SDS011;5375;51.250;6.776;2022-12-04T07:54:03;6.80;;;5.50;;
10653;SDS011;5375;51.250;6.776;2022-12-04T07:56:28;7.13;;;5.60;;
10653;SDS011;5375;51.250;6.776;2022-12-04T07:58:54;7.77;;;5.90;;
10653;SDS011;5375;51.250;6.776;2022-12-04T08:01:21;7.73;;;5.33;;
10653;SDS011;5375;51.250;6.776;2022-12-04T08:03:48;8.57;;;5.80;;
10653;SDS011;5375;51.250;6.776;2022-12-04T08:06:16;7.03;;;5.20;;
10653;SDS011;5375;51.250;6.776;2022-12-04T08:08:44;7.17;;;5.67;;
10653;SDS011;5375;51.250;6.776;2022-12-04T08:11:11;6.93;;;5.87;;
10653;SDS011;5375;51.250;6.776;2022-12-04T08:13:39;6.67;;;5.50;;
10653;SDS011;5375;51.250;6.776;2022-12-04T08:16:05;7.90;;;5.43;;
10653;SDS011;5375;51.250;6.776;2022-12-04T08:18:32;6.73;;;5.50;;
10653;SDS011;5375;51.250;6.776;2022-12-04T08:21:09;6.80;;;5.33;;
10653;SDS011;5375;51.250;6.776;2022-12-04T08:23:37;8.47;;;5.57;;
10653;SDS011;5375;51.250;6.776;2022-12-04T08:26:04;7.87;;;5.57;;
10653;SDS011;5375;51.250;6.776;2022-12-04T08:28:31;8.50;;;5.73;;
10653;SDS011;5375;51.250;6.776;2022-12-04T08:31:07;8.13;;;5.60;;
10653;SDS011;5375;51.250;6.776;2022-12-04T08:33:35;7.23;;;5.17;;
10653;SDS011;5375;51.250;6.776;2022-12-04T08:36:01;6.33;;;5.17;;
10653;SDS011;5375;51.250;6.776;2022-12-04T08:38:31;6.13;;;4.90;;
10653;SDS011;5375;51.250;6.776;2022-12-04T08:41:00;9.37;;;5.03;;
10653;SDS011;5375;51.250;6.776;2022-12-04T08:43:26;6.17;;;5.10;;
10653;SDS011;5375;51.250;6.776;2022-12-04T08:45:53;6.83;;;4.93;;
10653;SDS011;5375;51.250;6.776;2022-12-04T08:48:23;12.53;;;8.37;;
10653;SDS011;5375;51.250;6.776;2022-12-04T08:50:48;13.17;;;8.87;;
10653;SDS011;5375;51.250;6.776;2022-12-04T08:53:14;13.63;;;9.10;;
10653;SDS011;5375;51.250;6.776;2022-12-04T08:55:40;13.30;;;9.70;;
10653;SDS011;5375;51.250;6.776;2022-12-04T08:58:05;14.57;;;9.50;;
10653;SDS011;5375;51.250;6.776;2022-12-04T09:00:31;16.03;;;10.17;;
10653;SDS011;5375;51.250;6.776;2022-12-04T09:02:57;14.07;;;9.67;;
10653;SDS011;5375;51.250;6.776;2022-12-04T09:05:22;16.00;;;10.13;;
10653;SDS011;5375;51.250;6.776;2022-12-04T09:07:48;15.80;;;9.17;;
10653;SDS011;5375;51.250;6.776;2022-12-04T09:10:14;15.83;;;8.93;;
10653;SDS011;5375;51.250;6.776;2022-12-04T09:12:39;16.77;;;9.50;;
10653;SDS011;5375;51.250;6.776;2022-12-04T09:15:05;15.60;;;9.30;;
10653;SDS011;5375;51.250;6.776;2022-12-04T09:17:33;11.97;;;9.20;;
10653;SDS011;5375;51.250;6.776;2022-12-04T09:20:00;15.77;;;9.57;;
10653;SDS011;5375;51.250;6.776;2022-12-04T09:22:26;10.87;;;8.70;;
10653;SDS011;5375;51.250;6.776;2022-12-04T09:24:51;14.17;;;8.87;;
10653;SDS011;5375;51.250;6.776;2022-12-04T09:27:17;13.77;;;8.93;;
10653;SDS011;5375;51.250;6.776;2022-12-04T09:29:43;11.00;;;8.37;;
10653;SDS011;5375;51.250;6.776;2022-12-04T09:32:08;11.40;;;8.87;;
10653;SDS011;5375;51.250;6.776;2022-12-04T09:34:34;13.13;;;8.73;;
10653;SDS011;5375;51.250;6.776;2022-12-04T09:37:00;8.30;;;7.23;;
10653;SDS011;5375;51.250;6.776;2022-12-04T09:39:25;9.73;;;7.73;;
10653;SDS011;5375;51.250;6.776;2022-12-04T09:41:58;10.67;;;7.77;;
10653;SDS011;5375;51.250;6.776;2022-12-04T09:44:33;10.47;;;7.60;;
10653;SDS011;5375;51.250;6.776;2022-12-04T09:47:07;10.20;;;7.57;;
10653;SDS011;5375;51.250;6.776;2022-12-04T09:50:03;9.57;;;6.93;;
10653;SDS011;5375;51.250;6.776;2022-12-04T09:55:29;12.60;;;6.47;;
10653;SDS011;5375;51.250;6.776;2022-12-04T09:58:16;10.10;;;6.73;;
10653;SDS011;5375;51.250;6.776;2022-12-04T10:01:02;10.87;;;6.77;;
10653;SDS011;5375;51.250;6.776;2022-12-04T10:03:29;10.53;;;6.80;;
10653;SDS011;5375;51.250;6.776;2022-12-04T10:08:45;8.93;;;6.30;;
10653;SDS011;5375;51.250;6.776;2022-12-04T10:11:26;8.40;;;6.17;;
10653;SDS011;5375;51.250;6.776;2022-12-04T10:16:52;8.33;;;6.03;;
10653;SDS011;5375;51.250;6.776;2022-12-04T10:19:30;8.17;;;5.97;;
10653;SDS011;5375;51.250;6.776;2022-12-04T10:27:26;6.70;;;5.67;;
10653;SDS011;5375;51.250;6.776;2022-12-04T10:30:06;9.60;;;5.60;;
10653;SDS011;5375;51.250;6.776;2022-12-04T10:32:38;6.80;;;5.30;;
10653;SDS011;5375;51.250;6.776;2022-12-04T10:37:39;6.17;;;5.00;;
10653;SDS011;5375;51.250;6.776;2022-12-04T10:40:12;7.40;;;4.90;;
10653;SDS011;5375;51.250;6.776;2022-12-04T10:43:10;7.50;;;5.17;;
10653;SDS011;5375;51.250;6.776;2022-12-04T10:46:00;7.10;;;5.37;;
10653;SDS011;5375;51.250;6.776;2022-12-04T10:48:34;6.57;;;5.60;;
10653;SDS011;5375;51.250;6.776;2022-12-04T10:51:02;6.67;;;5.20;;
10653;SDS011;5375;51.250;6.776;2022-12-04T10:53:34;7.17;;;4.73;;
10653;SDS011;5375;51.250;6.776;2022-12-04T10:56:11;6.37;;;4.70;;
10653;SDS011;5375;51.250;6.776;2022-12-04T10:58:42;8.37;;;5.10;;
10653;SDS011;5375;51.250;6.776;2022-12-04T11:01:19;6.67;;;5.07;;
10653;SDS011;5375;51.250;6.776;2022-12-04T11:03:46;7.90;;;5.03;;
10653;SDS011;5375;51.250;6.776;2022-12-04T11:06:33;6.73;;;4.73;;
10653;SDS011;5375;51.250;6.776;2022-12-04T11:08:59;6.43;;;5.00;;
10653;SDS011;5375;51.250;6.776;2022-12-04T11:11:28;6.67;;;4.60;;
10653;SDS011;5375;51.250;6.776;2022-12-04T11:16:58;5.77;;;4.50;;
10653;SDS011;5375;51.250;6.776;2022-12-04T11:19:27;6.43;;;4.10;;
10653;SDS011;5375;51.250;6.776;2022-12-04T11:21:58;7.37;;;4.90;;
10653;SDS011;5375;51.250;6.776;2022-12-04T11:26:58;6.67;;;4.80;;
10653;SDS011;5375;51.250;6.776;2022-12-04T11:29:28;5.70;;;4.50;;
10653;SDS011;5375;51.250;6.776;2022-12-04T11:31:57;5.57;;;4.60;;
10653;SDS011;5375;51.250;6.776;2022-12-04T11:34:26;6.03;;;4.70;;
10653;SDS011;5375;51.250;6.776;2022-12-04T11:36:58;7.77;;;4.47;;
10653;SDS011;5375;51.250;6.776;2022-12-04T11:41:59;5.40;;;4.50;;
10653;SDS011;5375;51.250;6.776;2022-12-04T11:44:26;6.13;;;4.63;;
10653;SDS011;5375;51.250;6.776;2022-12-04T11:46:56;5.47;;;4.50;;
10653;SDS011;5375;51.250;6.776;2022-12-04T11:49:24;6.27;;;4.60;;
10653;SDS011;5375;51.250;6.776;2022-12-04T12:00:42;6.63;;;5.23;;
10653;SDS011;5375;51.250;6.776;2022-12-04T12:03:30;6.60;;;4.83;;
10653;SDS011;5375;51.250;6.776;2022-12-04T12:08:44;4.70;;;3.93;;
10653;SDS011;5375;51.250;6.776;2022-12-04T12:11:31;5.70;;;4.27;;
10653;SDS011;5375;51.250;6.776;2022-12-04T12:14:06;5.60;;;4.50;;
10653;SDS011;5375;51.250;6.776;2022-12-04T12:16:53;5.13;;;4.63;;
10653;SDS011;5375;51.250;6.776;2022-12-04T12:22:19;5.87;;;4.57;;
10653;SDS011;5375;51.250;6.776;2022-12-04T12:30:18;5.73;;;4.27;;
10653;SDS011;5375;51.250;6.776;2022-12-04T12:35:19;5.27;;;4.40;;
10653;SDS011;5375;51.250;6.776;2022-12-04T12:37:52;5.70;;;4.43;;
10653;SDS011;5375;51.250;6.776;2022-12-04T12:40:31;5.93;;;4.70;;
10653;SDS011;5375;51.250;6.776;2022-12-04T12:48:38;5.10;;;4.03;;
10653;SDS011;5375;51.250;6.776;2022-12-04T12:51:26;5.60;;;4.30;;
10653;SDS011;5375;51.250;6.776;2022-12-04T12:56:54;6.53;;;4.93;;
10653;SDS011;5375;51.250;6.776;2022-12-04T12:59:26;5.77;;;4.40;;
10653;SDS011;5375;51.250;6.776;2022-12-04T13:02:00;5.47;;;4.40;;
10653;SDS011;5375;51.250;6.776;2022-12-04T13:04:47;6.00;;;4.23;;
10653;SDS011;5375;51.250;6.776;2022-12-04T13:10:06;4.93;;;4.10;;
10653;SDS011;5375;51.250;6.776;2022-12-04T13:12:44;5.90;;;4.23;;
10653;SDS011;5375;51.250;6.776;2022-12-04T13:15:21;5.33;;;4.13;;
10653;SDS011;5375;51.250;6.776;2022-12-04T13:17:53;5.90;;;4.63;;
10653;SDS011;5375;51.250;6.776;2022-12-04T13:20:25;5.17;;;4.33;;
10653;SDS011;5375;51.250;6.776;2022-12-04T13:26:00;4.97;;;4.43;;
10653;SDS011;5375;51.250;6.776;2022-12-04T13:28:37;5.50;;;4.43;;
10653;SDS011;5375;51.250;6.776;2022-12-04T13:32:30;4.43;;;4.00;;
10653;SDS011;5375;51.250;6.776;2022-12-04T13:42:49;4.93;;;4.20;;
10653;SDS011;5375;51.250;6.776;2022-12-04T13:45:24;6.13;;;4.37;;
10653;SDS011;5375;51.250;6.776;2022-12-04T13:47:56;5.03;;;4.30;;
10653;SDS011;5375;51.250;6.776;2022-12-04T13:50:33;5.17;;;4.10;;
10653;SDS011;5375;51.250;6.776;2022-12-04T13:53:00;6.23;;;4.33;;
10653;SDS011;5375;51.250;6.776;2022-12-04T13:55:30;5.00;;;4.00;;
10653;SDS011;5375;51.250;6.776;2022-12-04T13:58:43;4.23;;;3.67;;
10653;SDS011;5375;51.250;6.776;2022-12-04T14:01:01;5.97;;;4.60;;
10653;SDS011;5375;51.250;6.776;2022-12-04T14:03:48;4.97;;;4.30;;
10653;SDS011;5375;51.250;6.776;2022-12-04T14:06:21;5.13;;;4.10;;
10653;SDS011;5375;51.250;6.776;2022-12-04T14:08:53;5.77;;;4.13;;
10653;SDS011;5375;51.250;6.776;2022-12-04T14:11:25;5.03;;;3.90;;
10653;SDS011;5375;51.250;6.776;2022-12-04T14:13:53;6.03;;;4.57;;
10653;SDS011;5375;51.250;6.776;2022-12-04T14:18:49;5.50;;;4.00;;
10653;SDS011;5375;51.250;6.776;2022-12-04T14:21:20;4.47;;;3.63;;
10653;SDS011;5375;51.250;6.776;2022-12-04T14:23:46;4.83;;;4.03;;
10653;SDS011;5375;51.250;6.776;2022-12-04T14:31:56;5.20;;;4.07;;
10653;SDS011;5375;51.250;6.776;2022-12-04T14:34:30;5.07;;;4.37;;
10653;SDS011;5375;51.250;6.776;2022-12-04T14:36:59;4.77;;;3.80;;
10653;SDS011;5375;51.250;6.776;2022-12-04T14:39:33;4.77;;;3.90;;
10653;SDS011;5375;51.250;6.776;2022-12-04T14:44:38;5.47;;;4.20;;
10653;SDS011;5375;51.250;6.776;2022-12-04T14:47:13;4.80;;;4.03;;
10653;SDS011;5375;51.250;6.776;2022-12-04T14:58:47;6.53;;;4.50;;
10653;SDS011;5375;51.250;6.776;2022-12-04T15:01:26;4.43;;;4.03;;
10653;SDS011;5375;51.250;6.776;2022-12-04T15:04:03;4.97;;;4.07;;
10653;SDS011;5375;51.250;6.776;2022-12-04T15:06:49;5.00;;;4.23;;
10653;SDS011;5375;51.250;6.776;2022-12-04T15:09:17;5.73;;;4.50;;
10653;SDS011;5375;51.250;6.776;2022-12-04T15:12:11;5.10;;;4.10;;
10653;SDS011;5375;51.250;6.776;2022-12-04T15:14:57;4.67;;;3.90;;
10653;SDS011;5375;51.250;6.776;2022-12-04T15:17:30;5.57;;;4.57;;
10653;SDS011;5375;51.250;6.776;2022-12-04T15:20:05;5.17;;;4.23;;
10653;SDS011;5375;51.250;6.776;2022-12-04T15:22:33;5.87;;;4.30;;
10653;SDS011;5375;51.250;6.776;2022-12-04T15:24:59;5.30;;;4.53;;
10653;SDS011;5375;51.250;6.776;2022-12-04T15:27:25;5.40;;;4.50;;
10653;SDS011;5375;51.250;6.776;2022-12-04T15:29:51;5.93;;;4.47;;
10653;SDS011;5375;51.250;6.776;2022-12-04T15:32:21;5.47;;;4.40;;
10653;SDS011;5375;51.250;6.776;2022-12-04T15:35:00;5.30;;;4.40;;
10653;SDS011;5375;51.250;6.776;2022-12-04T15:37:33;9.23;;;5.47;;
10653;SDS011;5375;51.250;6.776;2022-12-04T15:39:59;29.23;;;9.97;;
10653;SDS011;5375;51.250;6.776;2022-12-04T15:42:29;60.53;;;15.03;;
10653;SDS011;5375;51.250;6.776;2022-12-04T15:44:59;60.60;;;16.00;;
10653;SDS011;5375;51.250;6.776;2022-12-04T15:47:30;64.77;;;14.17;;
10653;SDS011;5375;51.250;6.776;2022-12-04T15:50:16;52.97;;;14.10;;
10653;SDS011;5375;51.250;6.776;2022-12-04T15:55:25;51.63;;;14.30;;
10653;SDS011;5375;51.250;6.776;2022-12-04T15:57:55;50.53;;;14.33;;
10653;SDS011;5375;51.250;6.776;2022-12-04T16:00:32;54.77;;;13.90;;
10653;SDS011;5375;51.250;6.776;2022-12-04T16:05:47;46.50;;;12.80;;
10653;SDS011;5375;51.250;6.776;2022-12-04T16:08:27;51.63;;;13.30;;
10653;SDS011;5375;51.250;6.776;2022-12-04T16:11:00;47.20;;;12.20;;
10653;SDS011;5375;51.250;6.776;2022-12-04T16:13:29;47.10;;;13.07;;
10653;SDS011;5375;51.250;6.776;2022-12-04T16:16:20;49.57;;;13.27;;
10653;SDS011;5375;51.250;6.776;2022-12-04T16:18:46;47.07;;;12.47;;
10653;SDS011;5375;51.250;6.776;2022-12-04T16:21:13;39.40;;;12.37;;
10653;SDS011;5375;51.250;6.776;2022-12-04T16:23:42;42.70;;;12.57;;
10653;SDS011;5375;51.250;6.776;2022-12-04T16:26:15;41.80;;;12.50;;
10653;SDS011;5375;51.250;6.776;2022-12-04T16:28:43;42.50;;;12.20;;
10653;SDS011;5375;51.250;6.776;2022-12-04T16:31:09;43.60;;;12.33;;
10653;SDS011;5375;51.250;6.776;2022-12-04T16:33:40;37.93;;;12.07;;
10653;SDS011;5375;51.250;6.776;2022-12-04T16:36:08;37.07;;;11.50;;
10653;SDS011;5375;51.250;6.776;2022-12-04T16:38:34;40.47;;;11.97;;
10653;SDS011;5375;51.250;6.776;2022-12-04T16:41:01;35.33;;;10.90;;
10653;SDS011;5375;51.250;6.776;2022-12-04T16:43:29;37.30;;;11.80;;
10653;SDS011;5375;51.250;6.776;2022-12-04T16:45:54;38.73;;;12.03;;
10653;SDS011;5375;51.250;6.776;2022-12-04T16:48:23;36.23;;;12.37;;
10653;SDS011;5375;51.250;6.776;2022-12-04T16:50:49;36.97;;;12.40;;
10653;SDS011;5375;51.250;6.776;2022-12-04T16:53:15;40.53;;;12.90;;
10653;SDS011;5375;51.250;6.776;2022-12-04T16:55:48;34.90;;;12.77;;
10653;SDS011;5375;51.250;6.776;2022-12-04T16:58:16;40.30;;;13.13;;
10653;SDS011;5375;51.250;6.776;2022-12-04T17:00:44;34.23;;;13.20;;
10653;SDS011;5375;51.250;6.776;2022-12-04T17:03:23;39.90;;;14.90;;
10653;SDS011;5375;51.250;6.776;2022-12-04T17:05:52;33.07;;;14.30;;
10653;SDS011;5375;51.250;6.776;2022-12-04T17:08:19;37.33;;;14.27;;
10653;SDS011;5375;51.250;6.776;2022-12-04T17:10:44;38.03;;;13.67;;
10653;SDS011;5375;51.250;6.776;2022-12-04T17:13:10;30.73;;;12.83;;
10653;SDS011;5375;51.250;6.776;2022-12-04T17:15:35;34.83;;;13.43;;
10653;SDS011;5375;51.250;6.776;2022-12-04T17:18:01;38.93;;;13.77;;
10653;SDS011;5375;51.250;6.776;2022-12-04T17:20:27;40.80;;;13.67;;
10653;SDS011;5375;51.250;6.776;2022-12-04T17:22:53;34.03;;;13.13;;
10653;SDS011;5375;51.250;6.776;2022-12-04T17:25:20;32.10;;;13.87;;
10653;SDS011;5375;51.250;6.776;2022-12-04T17:27:45;30.43;;;14.57;;
10653;SDS011;5375;51.250;6.776;2022-12-04T17:30:11;30.50;;;13.13;;
10653;SDS011;5375;51.250;6.776;2022-12-04T17:32:37;31.57;;;13.90;;
10653;SDS011;5375;51.250;6.776;2022-12-04T17:35:04;41.20;;;14.37;;